sensor_id;sensor_type;location;lat;lon;timestamp;P1;durP1;ratioP1;P2;durP2;ratioP2
23280;SDS011;11809;56.390;-3.266;2023-12-04T00:00:23;2.43;;;2.10;;
23280;SDS011;11809;56.390;-3.266;2023-12-04T00:02:59;2.40;;;2.17;;
23280;SDS011;11809;56.390;-3.266;2023-12-04T00:05:31;2.45;;;2.25;;
23280;SDS011;11809;56.390;-3.266;2023-12-04T00:08:02;2.28;;;2.00;;
23280;SDS011;11809;56.390;-3.266;2023-12-04T00:10:33;2.40;;;2.20;;
23280;SDS011;11809;56.390;-3.266;2023-12-04T00:13:04;2.00;;;1.90;;
23280;SDS011;11809;56.390;-3.266;2023-12-04T00:15:34;2.35;;;2.15;;
23280;SDS011;11809;56.390;-3.266;2023-12-04T00:18:08;2.20;;;2.00;;
23280;SDS011;11809;56.390;-3.266;2023-12-04T00:20:39;2.20;;;2.00;;
23280;SDS011;11809;56.390;-3.266;2023-12-04T00:23:10;2.20;;;2.05;;
23280;SDS011;11809;56.390;-3.266;2023-12-04T00:25:41;2.03;;;1.88;;
23280;SDS011;11809;56.390;-3.266;2023-12-04T00:28:11;2.17;;;2.05;;
23280;SDS011;11809;56.390;-3.266;2023-12-04T00:30:42;2.47;;;2.13;;
23280;SDS011;11809;56.390;-3.266;2023-12-04T00:33:16;1.98;;;1.80;;
23280;SDS011;11809;56.390;-3.266;2023-12-04T00:35:47;2.03;;;1.80;;
23280;SDS011;11809;56.390;-3.266;2023-12-04T00:40:48;3.35;;;1.58;;
23280;SDS011;11809;56.390;-3.266;2023-12-04T00:43:19;2.28;;;1.85;;
23280;SDS011;11809;56.390;-3.266;2023-12-04T00:45:49;2.20;;;2.10;;
23280;SDS011;11809;56.390;-3.266;2023-12-04T00:48:23;2.03;;;1.80;;
23280;SDS011;11809;56.390;-3.266;2023-12-04T00:50:54;1.83;;;1.73;;
23280;SDS011;11809;56.390;-3.266;2023-12-04T00:53:25;2.05;;;1.95;;
23280;SDS011;11809;56.390;-3.266;2023-12-04T00:55:55;2.00;;;1.80;;
23280;SDS011;11809;56.390;-3.266;2023-12-04T00:58:26;1.97;;;1.87;;
23280;SDS011;11809;56.390;-3.266;2023-12-04T01:00:56;2.00;;;1.80;;
23280;SDS011;11809;56.390;-3.266;2023-12-04T01:03:29;2.20;;;2.00;;
23280;SDS011;11809;56.390;-3.266;2023-12-04T01:06:00;1.95;;;1.65;;
23280;SDS011;11809;56.390;-3.266;2023-12-04T01:08:30;2.13;;;1.80;;
23280;SDS011;11809;56.390;-3.266;2023-12-04T01:11:00;2.08;;;1.60;;
23280;SDS011;11809;56.390;-3.266;2023-12-04T01:13:31;1.80;;;1.70;;
23280;SDS011;11809;56.390;-3.266;2023-12-04T01:16:01;1.80;;;1.70;;
23280;SDS011;11809;56.390;-3.266;2023-12-04T01:18:35;1.92;;;1.73;;
23280;SDS011;11809;56.390;-3.266;2023-12-04T01:21:06;1.50;;;1.40;;
23280;SDS011;11809;56.390;-3.266;2023-12-04T01:23:37;1.67;;;1.58;;
23280;SDS011;11809;56.390;-3.266;2023-12-04T01:26:07;1.58;;;1.48;;
23280;SDS011;11809;56.390;-3.266;2023-12-04T01:28:40;1.50;;;1.40;;
23280;SDS011;11809;56.390;-3.266;2023-12-04T01:31:10;1.70;;;1.50;;
23280;SDS011;11809;56.390;-3.266;2023-12-04T01:33:44;1.58;;;1.30;;
23280;SDS011;11809;56.390;-3.266;2023-12-04T01:36:14;3.38;;;1.40;;
23280;SDS011;11809;56.390;-3.266;2023-12-04T01:38:45;1.70;;;1.58;;
23280;SDS011;11809;56.390;-3.266;2023-12-04T01:41:15;1.50;;;1.40;;
23280;SDS011;11809;56.390;-3.266;2023-12-04T01:43:45;1.45;;;1.35;;
23280;SDS011;11809;56.390;-3.266;2023-12-04T01:46:16;1.48;;;1.35;;
23280;SDS011;11809;56.390;-3.266;2023-12-04T01:48:50;1.40;;;1.30;;
23280;SDS011;11809;56.390;-3.266;2023-12-04T01:51:21;1.88;;;1.40;;
23280;SDS011;11809;56.390;-3.266;2023-12-04T01:53:53;2.53;;;1.27;;
23280;SDS011;11809;56.390;-3.266;2023-12-04T01:56:25;1.40;;;1.30;;
23280;SDS011;11809;56.390;-3.266;2023-12-04T01:58:57;1.33;;;1.23;;
23280;SDS011;11809;56.390;-3.266;2023-12-04T02:01:28;1.38;;;1.27;;
23280;SDS011;11809;56.390;-3.266;2023-12-04T02:04:01;1.73;;;1.63;;
23280;SDS011;11809;56.390;-3.266;2023-12-04T02:06:34;2.22;;;1.40;;
23280;SDS011;11809;56.390;-3.266;2023-12-04T02:09:04;2.85;;;1.30;;
23280;SDS011;11809;56.390;-3.266;2023-12-04T02:11:39;1.70;;;1.52;;
23280;SDS011;11809;56.390;-3.266;2023-12-04T02:14:09;1.30;;;1.20;;
23280;SDS011;11809;56.390;-3.266;2023-12-04T02:16:40;1.30;;;1.20;;
23280;SDS011;11809;56.390;-3.266;2023-12-04T02:19:14;1.73;;;1.30;;
23280;SDS011;11809;56.390;-3.266;2023-12-04T02:21:45;1.35;;;1.10;;
23280;SDS011;11809;56.390;-3.266;2023-12-04T02:24:18;1.67;;;1.40;;
23280;SDS011;11809;56.390;-3.266;2023-12-04T02:26:51;1.50;;;1.25;;
23280;SDS011;11809;56.390;-3.266;2023-12-04T02:29:29;1.45;;;1.30;;
23280;SDS011;11809;56.390;-3.266;2023-12-04T02:32:02;3.65;;;1.35;;
23280;SDS011;11809;56.390;-3.266;2023-12-04T02:34:35;1.52;;;1.30;;
23280;SDS011;11809;56.390;-3.266;2023-12-04T02:37:07;1.50;;;1.40;;
23280;SDS011;11809;56.390;-3.266;2023-12-04T02:39:41;1.38;;;1.27;;
23280;SDS011;11809;56.390;-3.266;2023-12-04T02:42:12;1.30;;;1.20;;
23280;SDS011;11809;56.390;-3.266;2023-12-04T02:44:44;13.23;;;1.33;;
23280;SDS011;11809;56.390;-3.266;2023-12-04T02:47:14;1.07;;;1.00;;
23280;SDS011;11809;56.390;-3.266;2023-12-04T02:49:45;1.45;;;1.17;;
23280;SDS011;11809;56.390;-3.266;2023-12-04T02:52:15;2.05;;;1.02;;
23280;SDS011;11809;56.390;-3.266;2023-12-04T02:54:48;3.47;;;1.30;;
23280;SDS011;11809;56.390;-3.266;2023-12-04T02:57:19;1.80;;;1.45;;
23280;SDS011;11809;56.390;-3.266;2023-12-04T02:59:49;1.70;;;1.48;;
23280;SDS011;11809;56.390;-3.266;2023-12-04T03:02:20;1.67;;;1.40;;
23280;SDS011;11809;56.390;-3.266;2023-12-04T03:04:50;1.23;;;1.13;;
23280;SDS011;11809;56.390;-3.266;2023-12-04T03:07:21;1.87;;;1.40;;
23280;SDS011;11809;56.390;-3.266;2023-12-04T03:09:54;1.30;;;1.20;;
23280;SDS011;11809;56.390;-3.266;2023-12-04T03:12:24;1.67;;;1.38;;
23280;SDS011;11809;56.390;-3.266;2023-12-04T03:14:55;1.30;;;1.20;;
23280;SDS011;11809;56.390;-3.266;2023-12-04T03:17:25;1.60;;;1.50;;
23280;SDS011;11809;56.390;-3.266;2023-12-04T03:19:56;1.50;;;1.33;;
23280;SDS011;11809;56.390;-3.266;2023-12-04T03:22:27;1.58;;;1.48;;
23280;SDS011;11809;56.390;-3.266;2023-12-04T03:25:00;1.27;;;1.17;;
23280;SDS011;11809;56.390;-3.266;2023-12-04T03:27:31;2.05;;;1.30;;
23280;SDS011;11809;56.390;-3.266;2023-12-04T03:30:01;1.53;;;1.27;;
23280;SDS011;11809;56.390;-3.266;2023-12-04T03:32:32;1.52;;;1.20;;
23280;SDS011;11809;56.390;-3.266;2023-12-04T03:35:02;0.90;;;0.90;;
23280;SDS011;11809;56.390;-3.266;2023-12-04T03:37:33;1.30;;;1.20;;
23280;SDS011;11809;56.390;-3.266;2023-12-04T03:40:07;1.35;;;1.25;;
23280;SDS011;11809;56.390;-3.266;2023-12-04T03:42:37;1.27;;;1.17;;
23280;SDS011;11809;56.390;-3.266;2023-12-04T03:45:08;1.23;;;1.13;;
23280;SDS011;11809;56.390;-3.266;2023-12-04T03:47:39;1.05;;;0.90;;
23280;SDS011;11809;56.390;-3.266;2023-12-04T03:50:10;0.98;;;0.98;;
23280;SDS011;11809;56.390;-3.266;2023-12-04T03:52:40;1.02;;;0.90;;
23280;SDS011;11809;56.390;-3.266;2023-12-04T03:55:13;0.85;;;0.85;;
23280;SDS011;11809;56.390;-3.266;2023-12-04T03:57:46;1.30;;;1.00;;
23280;SDS011;11809;56.390;-3.266;2023-12-04T04:00:17;0.90;;;0.90;;
23280;SDS011;11809;56.390;-3.266;2023-12-04T04:02:48;1.15;;;1.05;;
23280;SDS011;11809;56.390;-3.266;2023-12-04T04:05:18;1.10;;;0.90;;
23280;SDS011;11809;56.390;-3.266;2023-12-04T04:07:49;2.22;;;0.85;;
23280;SDS011;11809;56.390;-3.266;2023-12-04T04:10:22;1.30;;;1.20;;
23280;SDS011;11809;56.390;-3.266;2023-12-04T04:12:52;1.88;;;1.40;;
23280;SDS011;11809;56.390;-3.266;2023-12-04T04:15:23;0.95;;;0.95;;
23280;SDS011;11809;56.390;-3.266;2023-12-04T04:17:53;1.20;;;1.03;;
23280;SDS011;11809;56.390;-3.266;2023-12-04T04:20:24;1.30;;;1.20;;
23280;SDS011;11809;56.390;-3.266;2023-12-04T04:22:54;1.10;;;1.00;;
23280;SDS011;11809;56.390;-3.266;2023-12-04T04:25:27;2.40;;;1.20;;
23280;SDS011;11809;56.390;-3.266;2023-12-04T04:27:58;2.33;;;1.00;;
23280;SDS011;11809;56.390;-3.266;2023-12-04T04:30:28;2.55;;;1.00;;
23280;SDS011;11809;56.390;-3.266;2023-12-04T04:32:59;2.43;;;1.00;;
23280;SDS011;11809;56.390;-3.266;2023-12-04T04:35:31;1.10;;;0.90;;
23280;SDS011;11809;56.390;-3.266;2023-12-04T04:38:01;1.20;;;1.10;;
23280;SDS011;11809;56.390;-3.266;2023-12-04T04:40:34;1.27;;;1.00;;
23280;SDS011;11809;56.390;-3.266;2023-12-04T04:43:09;1.23;;;0.95;;
23280;SDS011;11809;56.390;-3.266;2023-12-04T04:45:40;2.05;;;0.90;;
23280;SDS011;11809;56.390;-3.266;2023-12-04T04:48:10;1.00;;;0.90;;
23280;SDS011;11809;56.390;-3.266;2023-12-04T04:50:40;1.03;;;1.03;;
23280;SDS011;11809;56.390;-3.266;2023-12-04T04:53:11;1.90;;;0.93;;
23280;SDS011;11809;56.390;-3.266;2023-12-04T04:55:44;1.40;;;1.30;;
23280;SDS011;11809;56.390;-3.266;2023-12-04T04:58:15;1.20;;;1.10;;
23280;SDS011;11809;56.390;-3.266;2023-12-04T05:00:46;0.80;;;0.80;;
23280;SDS011;11809;56.390;-3.266;2023-12-04T05:03:16;1.70;;;0.90;;
23280;SDS011;11809;56.390;-3.266;2023-12-04T05:05:49;1.17;;;1.05;;
23280;SDS011;11809;56.390;-3.266;2023-12-04T05:08:19;1.07;;;0.80;;
23280;SDS011;11809;56.390;-3.266;2023-12-04T05:10:52;1.08;;;0.80;;
23280;SDS011;11809;56.390;-3.266;2023-12-04T05:13:23;1.15;;;0.90;;
23280;SDS011;11809;56.390;-3.266;2023-12-04T05:15:53;1.90;;;0.80;;
23280;SDS011;11809;56.390;-3.266;2023-12-04T05:18:24;1.00;;;0.90;;
23280;SDS011;11809;56.390;-3.266;2023-12-04T05:20:54;1.00;;;0.90;;
23280;SDS011;11809;56.390;-3.266;2023-12-04T05:23:24;0.88;;;0.80;;
23280;SDS011;11809;56.390;-3.266;2023-12-04T05:25:57;4.80;;;0.80;;
23280;SDS011;11809;56.390;-3.266;2023-12-04T05:28:28;10.93;;;1.40;;
23280;SDS011;11809;56.390;-3.266;2023-12-04T05:30:58;9.32;;;1.25;;
23280;SDS011;11809;56.390;-3.266;2023-12-04T05:33:29;2.80;;;1.15;;
23280;SDS011;11809;56.390;-3.266;2023-12-04T05:36:00;2.63;;;1.10;;
23280;SDS011;11809;56.390;-3.266;2023-12-04T05:38:30;8.05;;;1.20;;
23280;SDS011;11809;56.390;-3.266;2023-12-04T05:41:03;1.37;;;1.17;;
23280;SDS011;11809;56.390;-3.266;2023-12-04T05:43:34;6.57;;;1.60;;
23280;SDS011;11809;56.390;-3.266;2023-12-04T05:46:04;7.90;;;1.10;;
23280;SDS011;11809;56.390;-3.266;2023-12-04T05:48:35;4.28;;;0.90;;
23280;SDS011;11809;56.390;-3.266;2023-12-04T05:51:06;4.78;;;1.13;;
23280;SDS011;11809;56.390;-3.266;2023-12-04T05:53:38;0.90;;;0.80;;
23280;SDS011;11809;56.390;-3.266;2023-12-04T05:56:11;2.83;;;1.00;;
23280;SDS011;11809;56.390;-3.266;2023-12-04T05:58:41;2.00;;;0.77;;
23280;SDS011;11809;56.390;-3.266;2023-12-04T06:01:12;3.17;;;0.90;;
23280;SDS011;11809;56.390;-3.266;2023-12-04T06:03:44;6.18;;;1.20;;
23280;SDS011;11809;56.390;-3.266;2023-12-04T06:06:14;3.15;;;1.10;;
23280;SDS011;11809;56.390;-3.266;2023-12-04T06:08:44;6.13;;;1.23;;
23280;SDS011;11809;56.390;-3.266;2023-12-04T06:11:17;5.45;;;0.90;;
23280;SDS011;11809;56.390;-3.266;2023-12-04T06:13:48;1.80;;;0.95;;
23280;SDS011;11809;56.390;-3.266;2023-12-04T06:16:18;3.03;;;0.90;;
23280;SDS011;11809;56.390;-3.266;2023-12-04T06:18:48;5.63;;;1.13;;
23280;SDS011;11809;56.390;-3.266;2023-12-04T06:21:19;4.50;;;0.80;;
23280;SDS011;11809;56.390;-3.266;2023-12-04T06:23:50;6.47;;;1.00;;
23280;SDS011;11809;56.390;-3.266;2023-12-04T06:26:24;3.28;;;1.08;;
23280;SDS011;11809;56.390;-3.266;2023-12-04T06:28:55;1.35;;;0.77;;
23280;SDS011;11809;56.390;-3.266;2023-12-04T06:31:26;6.35;;;0.98;;
23280;SDS011;11809;56.390;-3.266;2023-12-04T06:33:57;3.90;;;0.80;;
23280;SDS011;11809;56.390;-3.266;2023-12-04T06:36:28;6.07;;;0.90;;
23280;SDS011;11809;56.390;-3.266;2023-12-04T06:39:01;4.78;;;1.05;;
23280;SDS011;11809;56.390;-3.266;2023-12-04T06:41:36;4.20;;;1.17;;
23280;SDS011;11809;56.390;-3.266;2023-12-04T06:44:08;2.25;;;0.90;;
23280;SDS011;11809;56.390;-3.266;2023-12-04T06:46:41;5.38;;;0.90;;
23280;SDS011;11809;56.390;-3.266;2023-12-04T06:49:18;3.67;;;0.88;;
23280;SDS011;11809;56.390;-3.266;2023-12-04T06:51:49;4.55;;;0.95;;
23280;SDS011;11809;56.390;-3.266;2023-12-04T06:54:20;1.33;;;0.82;;
23280;SDS011;11809;56.390;-3.266;2023-12-04T06:56:53;2.30;;;0.87;;
23280;SDS011;11809;56.390;-3.266;2023-12-04T06:59:23;6.65;;;1.35;;
23280;SDS011;11809;56.390;-3.266;2023-12-04T07:01:54;6.18;;;1.20;;
23280;SDS011;11809;56.390;-3.266;2023-12-04T07:04:24;4.00;;;1.57;;
23280;SDS011;11809;56.390;-3.266;2023-12-04T07:06:55;5.28;;;1.20;;
23280;SDS011;11809;56.390;-3.266;2023-12-04T07:09:31;3.58;;;0.88;;
23280;SDS011;11809;56.390;-3.266;2023-12-04T07:12:05;3.05;;;0.90;;
23280;SDS011;11809;56.390;-3.266;2023-12-04T07:14:36;3.22;;;0.93;;
23280;SDS011;11809;56.390;-3.266;2023-12-04T07:17:06;5.67;;;1.63;;
23280;SDS011;11809;56.390;-3.266;2023-12-04T07:19:38;3.42;;;0.80;;
23280;SDS011;11809;56.390;-3.266;2023-12-04T07:22:12;11.38;;;1.60;;
23280;SDS011;11809;56.390;-3.266;2023-12-04T07:24:43;7.03;;;1.35;;
23280;SDS011;11809;56.390;-3.266;2023-12-04T07:27:16;5.95;;;1.30;;
23280;SDS011;11809;56.390;-3.266;2023-12-04T07:29:47;6.47;;;1.38;;
23280;SDS011;11809;56.390;-3.266;2023-12-04T07:32:17;5.80;;;1.35;;
23280;SDS011;11809;56.390;-3.266;2023-12-04T07:34:48;13.73;;;1.40;;
23280;SDS011;11809;56.390;-3.266;2023-12-04T07:37:18;11.15;;;1.25;;
23280;SDS011;11809;56.390;-3.266;2023-12-04T07:39:49;11.15;;;1.40;;
23280;SDS011;11809;56.390;-3.266;2023-12-04T07:42:23;10.68;;;1.00;;
23280;SDS011;11809;56.390;-3.266;2023-12-04T07:44:54;12.18;;;1.00;;
23280;SDS011;11809;56.390;-3.266;2023-12-04T07:47:24;4.43;;;0.75;;
23280;SDS011;11809;56.390;-3.266;2023-12-04T07:49:57;3.80;;;0.80;;
23280;SDS011;11809;56.390;-3.266;2023-12-04T07:52:30;6.15;;;1.05;;
23280;SDS011;11809;56.390;-3.266;2023-12-04T07:55:00;2.20;;;0.77;;
23280;SDS011;11809;56.390;-3.266;2023-12-04T07:57:33;8.00;;;1.00;;
23280;SDS011;11809;56.390;-3.266;2023-12-04T08:00:05;15.43;;;1.35;;
23280;SDS011;11809;56.390;-3.266;2023-12-04T08:02:39;5.85;;;1.00;;
23280;SDS011;11809;56.390;-3.266;2023-12-04T08:05:11;7.13;;;1.00;;
23280;SDS011;11809;56.390;-3.266;2023-12-04T08:07:42;8.80;;;1.42;;
23280;SDS011;11809;56.390;-3.266;2023-12-04T08:10:13;4.90;;;0.88;;
23280;SDS011;11809;56.390;-3.266;2023-12-04T08:12:47;2.88;;;0.70;;
23280;SDS011;11809;56.390;-3.266;2023-12-04T08:15:18;6.97;;;0.80;;
23280;SDS011;11809;56.390;-3.266;2023-12-04T08:17:48;6.05;;;0.75;;
23280;SDS011;11809;56.390;-3.266;2023-12-04T08:20:19;8.63;;;0.93;;
23280;SDS011;11809;56.390;-3.266;2023-12-04T08:23:02;1.88;;;0.75;;
23280;SDS011;11809;56.390;-3.266;2023-12-04T08:25:33;2.55;;;0.60;;
23280;SDS011;11809;56.390;-3.266;2023-12-04T08:28:08;1.10;;;0.50;;
23280;SDS011;11809;56.390;-3.266;2023-12-04T08:30:39;2.33;;;0.50;;
23280;SDS011;11809;56.390;-3.266;2023-12-04T08:33:10;1.25;;;0.57;;
23280;SDS011;11809;56.390;-3.266;2023-12-04T08:35:41;2.20;;;0.65;;
23280;SDS011;11809;56.390;-3.266;2023-12-04T08:38:11;1.27;;;0.50;;
23280;SDS011;11809;56.390;-3.266;2023-12-04T08:40:42;2.08;;;0.70;;
23280;SDS011;11809;56.390;-3.266;2023-12-04T08:43:15;1.08;;;0.47;;
23280;SDS011;11809;56.390;-3.266;2023-12-04T08:45:46;1.08;;;0.50;;
23280;SDS011;11809;56.390;-3.266;2023-12-04T08:48:17;0.82;;;0.40;;
23280;SDS011;11809;56.390;-3.266;2023-12-04T08:50:47;1.83;;;0.40;;
23280;SDS011;11809;56.390;-3.266;2023-12-04T08:53:18;1.55;;;0.40;;
23280;SDS011;11809;56.390;-3.266;2023-12-04T08:55:49;1.15;;;0.40;;
23280;SDS011;11809;56.390;-3.266;2023-12-04T08:58:22;1.85;;;0.40;;
23280;SDS011;11809;56.390;-3.266;2023-12-04T09:00:54;0.95;;;0.30;;
23280;SDS011;11809;56.390;-3.266;2023-12-04T09:03:24;1.65;;;0.50;;
23280;SDS011;11809;56.390;-3.266;2023-12-04T09:05:58;2.03;;;0.43;;
23280;SDS011;11809;56.390;-3.266;2023-12-04T09:11:08;1.75;;;0.40;;
23280;SDS011;11809;56.390;-3.266;2023-12-04T09:13:52;1.73;;;0.55;;
23280;SDS011;11809;56.390;-3.266;2023-12-04T09:16:23;0.35;;;0.30;;
23280;SDS011;11809;56.390;-3.266;2023-12-04T09:18:54;0.40;;;0.40;;
23280;SDS011;11809;56.390;-3.266;2023-12-04T09:23:56;2.73;;;0.60;;
23280;SDS011;11809;56.390;-3.266;2023-12-04T09:29:01;1.00;;;0.30;;
23280;SDS011;11809;56.390;-3.266;2023-12-04T09:31:35;1.40;;;0.68;;
23280;SDS011;11809;56.390;-3.266;2023-12-04T09:34:06;0.63;;;0.40;;
23280;SDS011;11809;56.390;-3.266;2023-12-04T09:36:36;0.73;;;0.47;;
23280;SDS011;11809;56.390;-3.266;2023-12-04T09:39:07;2.17;;;0.32;;
23280;SDS011;11809;56.390;-3.266;2023-12-04T09:41:38;4.05;;;0.60;;
23280;SDS011;11809;56.390;-3.266;2023-12-04T09:44:14;4.88;;;0.50;;
23280;SDS011;11809;56.390;-3.266;2023-12-04T09:46:48;1.70;;;0.60;;
23280;SDS011;11809;56.390;-3.266;2023-12-04T09:49:23;0.73;;;0.50;;
23280;SDS011;11809;56.390;-3.266;2023-12-04T09:51:58;5.38;;;0.60;;
23280;SDS011;11809;56.390;-3.266;2023-12-04T09:54:30;2.35;;;0.60;;
23280;SDS011;11809;56.390;-3.266;2023-12-04T09:57:05;0.95;;;0.57;;
23280;SDS011;11809;56.390;-3.266;2023-12-04T09:59:39;1.08;;;0.52;;
23280;SDS011;11809;56.390;-3.266;2023-12-04T10:02:17;1.95;;;0.55;;
23280;SDS011;11809;56.390;-3.266;2023-12-04T10:04:53;1.38;;;0.57;;
23280;SDS011;11809;56.390;-3.266;2023-12-04T10:07:25;1.90;;;0.52;;
23280;SDS011;11809;56.390;-3.266;2023-12-04T10:09:56;2.05;;;0.50;;
23280;SDS011;11809;56.390;-3.266;2023-12-04T10:12:31;0.88;;;0.50;;
23280;SDS011;11809;56.390;-3.266;2023-12-04T10:15:10;2.55;;;0.57;;
23280;SDS011;11809;56.390;-3.266;2023-12-04T10:17:43;1.23;;;0.60;;
23280;SDS011;11809;56.390;-3.266;2023-12-04T10:20:15;1.15;;;0.60;;
23280;SDS011;11809;56.390;-3.266;2023-12-04T10:22:52;0.57;;;0.50;;
23280;SDS011;11809;56.390;-3.266;2023-12-04T10:25:26;1.13;;;0.70;;
23280;SDS011;11809;56.390;-3.266;2023-12-04T10:28:06;1.08;;;0.60;;
23280;SDS011;11809;56.390;-3.266;2023-12-04T10:30:41;1.03;;;0.53;;
23280;SDS011;11809;56.390;-3.266;2023-12-04T10:33:14;2.08;;;0.70;;
23280;SDS011;11809;56.390;-3.266;2023-12-04T10:35:46;0.68;;;0.47;;
23280;SDS011;11809;56.390;-3.266;2023-12-04T10:38:17;0.85;;;0.57;;
23280;SDS011;11809;56.390;-3.266;2023-12-04T10:40:51;1.40;;;0.57;;
23280;SDS011;11809;56.390;-3.266;2023-12-04T10:43:23;3.30;;;0.73;;
23280;SDS011;11809;56.390;-3.266;2023-12-04T10:45:57;2.85;;;0.70;;
23280;SDS011;11809;56.390;-3.266;2023-12-04T10:48:29;1.73;;;0.75;;
23280;SDS011;11809;56.390;-3.266;2023-12-04T10:51:02;1.48;;;0.70;;
23280;SDS011;11809;56.390;-3.266;2023-12-04T10:53:35;1.10;;;0.63;;
23280;SDS011;11809;56.390;-3.266;2023-12-04T10:56:08;3.22;;;0.82;;
23280;SDS011;11809;56.390;-3.266;2023-12-04T10:58:40;3.20;;;0.68;;
23280;SDS011;11809;56.390;-3.266;2023-12-04T11:01:14;1.60;;;0.60;;
23280;SDS011;11809;56.390;-3.266;2023-12-04T11:03:47;2.17;;;0.65;;
23280;SDS011;11809;56.390;-3.266;2023-12-04T11:06:22;1.58;;;0.63;;
23280;SDS011;11809;56.390;-3.266;2023-12-04T11:08:57;2.25;;;0.80;;
23280;SDS011;11809;56.390;-3.266;2023-12-04T11:11:32;1.08;;;0.70;;
23280;SDS011;11809;56.390;-3.266;2023-12-04T11:14:06;2.58;;;0.73;;
23280;SDS011;11809;56.390;-3.266;2023-12-04T11:16:45;1.52;;;0.80;;
23280;SDS011;11809;56.390;-3.266;2023-12-04T11:19:18;2.28;;;0.90;;
23280;SDS011;11809;56.390;-3.266;2023-12-04T11:21:55;2.10;;;0.80;;
23280;SDS011;11809;56.390;-3.266;2023-12-04T11:24:29;1.85;;;0.65;;
23280;SDS011;11809;56.390;-3.266;2023-12-04T11:29:30;2.22;;;0.82;;
23280;SDS011;11809;56.390;-3.266;2023-12-04T11:32:07;3.00;;;0.70;;
23280;SDS011;11809;56.390;-3.266;2023-12-04T11:34:49;3.22;;;0.70;;
23280;SDS011;11809;56.390;-3.266;2023-12-04T11:37:24;1.42;;;0.70;;
23280;SDS011;11809;56.390;-3.266;2023-12-04T11:39:56;1.75;;;0.65;;
23280;SDS011;11809;56.390;-3.266;2023-12-04T11:42:33;0.57;;;0.50;;
23280;SDS011;11809;56.390;-3.266;2023-12-04T11:45:07;1.50;;;0.65;;
23280;SDS011;11809;56.390;-3.266;2023-12-04T11:47:54;4.68;;;0.73;;
23280;SDS011;11809;56.390;-3.266;2023-12-04T11:50:26;0.52;;;0.43;;
23280;SDS011;11809;56.390;-3.266;2023-12-04T11:52:57;1.85;;;0.75;;
23280;SDS011;11809;56.390;-3.266;2023-12-04T11:55:28;2.72;;;0.70;;
23280;SDS011;11809;56.390;-3.266;2023-12-04T11:57:59;3.60;;;1.00;;
23280;SDS011;11809;56.390;-3.266;2023-12-04T12:00:29;1.10;;;0.60;;
23280;SDS011;11809;56.390;-3.266;2023-12-04T12:03:04;2.87;;;0.70;;
23280;SDS011;11809;56.390;-3.266;2023-12-04T12:05:49;0.77;;;0.50;;
23280;SDS011;11809;56.390;-3.266;2023-12-04T12:08:23;2.60;;;0.88;;
23280;SDS011;11809;56.390;-3.266;2023-12-04T12:10:55;2.13;;;0.70;;
23280;SDS011;11809;56.390;-3.266;2023-12-04T12:13:27;2.67;;;0.95;;
23280;SDS011;11809;56.390;-3.266;2023-12-04T12:15:58;2.03;;;0.75;;
23280;SDS011;11809;56.390;-3.266;2023-12-04T12:18:34;2.50;;;0.70;;
23280;SDS011;11809;56.390;-3.266;2023-12-04T12:21:07;2.67;;;0.90;;
23280;SDS011;11809;56.390;-3.266;2023-12-04T12:23:38;2.53;;;0.73;;
23280;SDS011;11809;56.390;-3.266;2023-12-04T12:26:10;2.80;;;0.80;;
23280;SDS011;11809;56.390;-3.266;2023-12-04T12:28:41;1.50;;;0.88;;
23280;SDS011;11809;56.390;-3.266;2023-12-04T12:31:12;1.67;;;0.77;;
23280;SDS011;11809;56.390;-3.266;2023-12-04T12:33:45;1.53;;;0.80;;
23280;SDS011;11809;56.390;-3.266;2023-12-04T12:36:16;2.35;;;0.80;;
23280;SDS011;11809;56.390;-3.266;2023-12-04T12:38:47;1.98;;;1.00;;
23280;SDS011;11809;56.390;-3.266;2023-12-04T12:41:18;2.75;;;0.93;;
23280;SDS011;11809;56.390;-3.266;2023-12-04T12:43:51;2.42;;;1.10;;
23280;SDS011;11809;56.390;-3.266;2023-12-04T12:46:23;2.63;;;1.00;;
23280;SDS011;11809;56.390;-3.266;2023-12-04T12:48:57;2.28;;;0.88;;
23280;SDS011;11809;56.390;-3.266;2023-12-04T12:51:28;3.75;;;1.23;;
23280;SDS011;11809;56.390;-3.266;2023-12-04T12:53:59;3.97;;;1.20;;
23280;SDS011;11809;56.390;-3.266;2023-12-04T12:56:30;3.00;;;1.02;;
23280;SDS011;11809;56.390;-3.266;2023-12-04T12:59:01;2.50;;;0.88;;
23280;SDS011;11809;56.390;-3.266;2023-12-04T13:01:32;3.33;;;1.10;;
23280;SDS011;11809;56.390;-3.266;2023-12-04T13:04:06;2.03;;;0.93;;
23280;SDS011;11809;56.390;-3.266;2023-12-04T13:06:37;2.28;;;1.10;;
23280;SDS011;11809;56.390;-3.266;2023-12-04T13:09:08;1.65;;;1.10;;
23280;SDS011;11809;56.390;-3.266;2023-12-04T13:11:44;2.58;;;0.98;;
23280;SDS011;11809;56.390;-3.266;2023-12-04T13:14:16;2.72;;;1.27;;
23280;SDS011;11809;56.390;-3.266;2023-12-04T13:16:46;3.08;;;0.90;;
23280;SDS011;11809;56.390;-3.266;2023-12-04T13:19:20;2.30;;;1.10;;
23280;SDS011;11809;56.390;-3.266;2023-12-04T13:21:53;3.17;;;1.10;;
23280;SDS011;11809;56.390;-3.266;2023-12-04T13:24:24;2.53;;;1.17;;
23280;SDS011;11809;56.390;-3.266;2023-12-04T13:26:55;2.70;;;1.35;;
23280;SDS011;11809;56.390;-3.266;2023-12-04T13:29:27;3.70;;;1.20;;
23280;SDS011;11809;56.390;-3.266;2023-12-04T13:31:57;2.25;;;1.13;;
23280;SDS011;11809;56.390;-3.266;2023-12-04T13:37:01;2.97;;;0.77;;
23280;SDS011;11809;56.390;-3.266;2023-12-04T13:39:34;4.30;;;1.35;;
23280;SDS011;11809;56.390;-3.266;2023-12-04T13:42:15;4.75;;;1.40;;
23280;SDS011;11809;56.390;-3.266;2023-12-04T13:44:59;2.40;;;1.08;;
23280;SDS011;11809;56.390;-3.266;2023-12-04T13:47:31;2.50;;;0.95;;
23280;SDS011;11809;56.390;-3.266;2023-12-04T13:50:09;1.85;;;1.10;;
23280;SDS011;11809;56.390;-3.266;2023-12-04T13:52:40;3.33;;;1.65;;
23280;SDS011;11809;56.390;-3.266;2023-12-04T13:55:11;2.47;;;1.27;;
23280;SDS011;11809;56.390;-3.266;2023-12-04T13:57:47;3.88;;;1.33;;
23280;SDS011;11809;56.390;-3.266;2023-12-04T14:00:36;3.15;;;1.30;;
23280;SDS011;11809;56.390;-3.266;2023-12-04T14:03:07;4.10;;;1.45;;
23280;SDS011;11809;56.390;-3.266;2023-12-04T14:05:41;3.10;;;1.27;;
23280;SDS011;11809;56.390;-3.266;2023-12-04T14:08:12;2.47;;;1.20;;
23280;SDS011;11809;56.390;-3.266;2023-12-04T14:10:44;4.63;;;1.73;;
23280;SDS011;11809;56.390;-3.266;2023-12-04T14:13:14;2.67;;;1.27;;
23280;SDS011;11809;56.390;-3.266;2023-12-04T14:15:45;2.85;;;1.20;;
23280;SDS011;11809;56.390;-3.266;2023-12-04T14:18:16;1.73;;;1.10;;
23280;SDS011;11809;56.390;-3.266;2023-12-04T14:20:49;1.92;;;1.42;;
23280;SDS011;11809;56.390;-3.266;2023-12-04T14:23:19;2.75;;;1.52;;
23280;SDS011;11809;56.390;-3.266;2023-12-04T14:25:50;2.85;;;1.17;;
23280;SDS011;11809;56.390;-3.266;2023-12-04T14:28:21;3.10;;;1.40;;
23280;SDS011;11809;56.390;-3.266;2023-12-04T14:30:58;2.97;;;1.10;;
23280;SDS011;11809;56.390;-3.266;2023-12-04T14:33:29;1.67;;;1.02;;
23280;SDS011;11809;56.390;-3.266;2023-12-04T14:36:04;2.22;;;1.05;;
23280;SDS011;11809;56.390;-3.266;2023-12-04T14:38:35;3.50;;;1.23;;
23280;SDS011;11809;56.390;-3.266;2023-12-04T14:41:06;3.05;;;1.10;;
23280;SDS011;11809;56.390;-3.266;2023-12-04T14:43:38;4.53;;;1.40;;
23280;SDS011;11809;56.390;-3.266;2023-12-04T14:46:09;1.42;;;1.17;;
23280;SDS011;11809;56.390;-3.266;2023-12-04T14:48:40;2.25;;;1.27;;
23280;SDS011;11809;56.390;-3.266;2023-12-04T14:51:14;4.45;;;1.25;;
23280;SDS011;11809;56.390;-3.266;2023-12-04T14:53:45;4.20;;;1.38;;
23280;SDS011;11809;56.390;-3.266;2023-12-04T14:56:18;4.45;;;1.48;;
23280;SDS011;11809;56.390;-3.266;2023-12-04T14:58:55;2.83;;;1.13;;
23280;SDS011;11809;56.390;-3.266;2023-12-04T15:02:02;2.33;;;1.20;;
23280;SDS011;11809;56.390;-3.266;2023-12-04T15:04:57;3.70;;;1.40;;
23280;SDS011;11809;56.390;-3.266;2023-12-04T15:07:43;2.80;;;1.23;;
23280;SDS011;11809;56.390;-3.266;2023-12-04T15:10:44;4.50;;;1.17;;
23280;SDS011;11809;56.390;-3.266;2023-12-04T15:13:49;4.60;;;1.70;;
23280;SDS011;11809;56.390;-3.266;2023-12-04T15:16:35;3.55;;;1.10;;
23280;SDS011;11809;56.390;-3.266;2023-12-04T15:19:10;21.02;;;1.60;;